createdAt,value
2018-05-15T00:00:49.039Z,100980.44
2018-05-15T00:03:17.154Z,100981.37
2018-05-15T00:05:45.275Z,100977.84
2018-05-15T00:08:13.520Z,100981.48
2018-05-15T00:10:41.632Z,100983.38
2018-05-15T00:13:09.776Z,100986.37
2018-05-15T00:15:37.896Z,100986.08
2018-05-15T00:18:06.003Z,100990.05
2018-05-15T00:20:34.129Z,100985.22
2018-05-15T00:23:02.238Z,100994.17
2018-05-15T00:25:30.338Z,100993.20
2018-05-15T00:27:58.466Z,100996.05
2018-05-15T00:30:26.575Z,100987.30
2018-05-15T00:32:54.686Z,100991.66
2018-05-15T00:35:22.806Z,100992.58
2018-05-15T00:37:50.919Z,100993.81
2018-05-15T00:40:19.315Z,100994.44
2018-05-15T00:42:47.438Z,100991.41
2018-05-15T00:45:15.545Z,100999.43
2018-05-15T00:47:43.655Z,100993.69
2018-05-15T00:50:11.790Z,100995.87
2018-05-15T00:52:39.887Z,100992.17
2018-05-15T00:55:20.012Z,100993.25
2018-05-15T00:57:48.132Z,100989.94
2018-05-15T01:00:16.243Z,100990.56
2018-05-15T01:02:44.628Z,101004.20
2018-05-15T01:05:12.741Z,100995.77
2018-05-15T01:07:40.879Z,100999.44
2018-05-15T01:10:09.006Z,101000.65
2018-05-15T01:12:37.133Z,101000.34
2018-05-15T01:15:05.261Z,100998.98
2018-05-15T01:17:33.397Z,101004.54
2018-05-15T01:20:01.520Z,100999.67
2018-05-15T01:22:29.615Z,100995.42
2018-05-15T01:24:57.752Z,100992.13
2018-05-15T01:27:25.886Z,100995.66
2018-05-15T01:29:54.008Z,100996.89
2018-05-15T01:32:22.288Z,100996.45
2018-05-15T01:34:50.397Z,100998.52
2018-05-15T01:37:18.523Z,100999.44
2018-05-15T01:39:46.657Z,100999.16
2018-05-15T01:42:14.777Z,100995.03
2018-05-15T01:44:43.713Z,101004.53
2018-05-15T01:47:11.881Z,101009.12
2018-05-15T01:49:40.016Z,101007.58
2018-05-15T01:52:08.148Z,101006.16
2018-05-15T01:54:36.422Z,101005.28
2018-05-15T01:57:04.560Z,101004.62
2018-05-15T01:59:32.678Z,101012.92
2018-05-15T02:02:00.813Z,101007.59
2018-05-15T02:04:28.915Z,101010.91
2018-05-15T02:06:57.048Z,101009.39
2018-05-15T02:09:25.191Z,101019.86
2018-05-15T02:11:53.315Z,101015.47
2018-05-15T02:14:21.446Z,101016.95
2018-05-15T02:16:49.551Z,101011.83
2018-05-15T02:19:17.692Z,101019.31
2018-05-15T02:21:45.820Z,101015.50
2018-05-15T02:24:13.960Z,101022.12
2018-05-15T02:26:42.078Z,101016.85
2018-05-15T02:29:10.197Z,101016.33
2018-05-15T02:31:38.345Z,101017.82
2018-05-15T02:34:06.471Z,101014.19
2018-05-15T02:36:34.589Z,101014.42
2018-05-15T02:39:02.696Z,101017.24
2018-05-15T02:41:30.829Z,101022.27
2018-05-15T02:43:58.934Z,101018.81
2018-05-15T02:46:27.894Z,101023.28
2018-05-15T02:48:55.988Z,101023.15
2018-05-15T02:51:24.137Z,101027.45
2018-05-15T02:53:52.277Z,101023.59
2018-05-15T02:56:20.389Z,101016.66
2018-05-15T02:58:48.518Z,101021.39
2018-05-15T03:01:17.050Z,101019.48
2018-05-15T03:03:45.198Z,101023.50
2018-05-15T03:06:13.319Z,101018.22
2018-05-15T03:08:41.443Z,101031.52
2018-05-15T03:11:09.556Z,101026.33
2018-05-15T03:13:37.686Z,101030.07
2018-05-15T03:16:05.809Z,101021.56
2018-05-15T03:18:33.938Z,101029.58
2018-05-15T03:21:02.058Z,101030.73
2018-05-15T03:23:30.174Z,101028.28
2018-05-15T03:25:58.315Z,101037.92
2018-05-15T03:28:26.434Z,101033.84
2018-05-15T03:30:54.570Z,101038.59
2018-05-15T03:33:22.683Z,101040.64
2018-05-15T03:35:50.804Z,101043.52
2018-05-15T03:38:18.948Z,101044.23
2018-05-15T03:40:47.070Z,101048.17
2018-05-15T03:43:15.172Z,101047.86
2018-05-15T03:45:43.318Z,101051.08
2018-05-15T03:48:11.433Z,101054.35
2018-05-15T03:50:39.565Z,101055.84
2018-05-15T03:53:07.694Z,101063.76
2018-05-15T03:55:35.813Z,101063.41
2018-05-15T03:58:04.076Z,101059.05
2018-05-15T04:00:47.863Z,101063.11
2018-05-15T04:03:27.789Z,101063.31
2018-05-15T04:06:07.777Z,101062.86
2018-05-15T04:08:35.916Z,101060.79
2018-05-15T04:11:04.210Z,101054.61
2018-05-15T04:13:32.265Z,101062.53
2018-05-15T04:16:00.392Z,101059.85
2018-05-15T04:18:28.502Z,101065.44
2018-05-15T04:20:56.637Z,101066.58
2018-05-15T04:23:24.764Z,101064.18
2018-05-15T04:25:52.885Z,101058.55
2018-05-15T04:28:21.083Z,101060.61
2018-05-15T04:30:49.161Z,101067.83
2018-05-15T04:33:17.293Z,101063.87
2018-05-15T04:35:45.432Z,101062.78
2018-05-15T04:38:13.579Z,101070.25
2018-05-15T04:40:42.191Z,101069.58
2018-05-15T04:43:10.383Z,101069.96
2018-05-15T04:45:38.509Z,101075.33
2018-05-15T04:48:06.652Z,101068.05
2018-05-15T04:50:34.787Z,101078.95
2018-05-15T04:53:02.919Z,101074.77
2018-05-15T04:55:34.054Z,101084.34
2018-05-15T04:58:02.203Z,101083.54
2018-05-15T05:00:30.323Z,101083.20
2018-05-15T05:02:58.450Z,101082.50
2018-05-15T05:05:26.566Z,101084.33
2018-05-15T05:07:54.707Z,101091.34
2018-05-15T05:10:22.850Z,101093.02
2018-05-15T05:12:50.968Z,101098.95
2018-05-15T05:15:19.112Z,101099.84
2018-05-15T05:17:47.233Z,101100.36
2018-05-15T05:20:15.372Z,101107.53
2018-05-15T05:22:43.500Z,101108.61
2018-05-15T05:25:11.607Z,101110.28
2018-05-15T05:27:39.749Z,101115.63
2018-05-15T05:30:07.868Z,101120.79
2018-05-15T05:32:36.011Z,101121.48
2018-05-15T05:35:04.152Z,101127.15
2018-05-15T05:37:32.298Z,101126.39
2018-05-15T05:40:00.432Z,101129.61
2018-05-15T05:42:28.602Z,101131.28
2018-05-15T05:44:56.745Z,101132.34
2018-05-15T05:47:24.861Z,101138.13
2018-05-15T05:49:52.983Z,101137.22
2018-05-15T05:52:21.110Z,101150.56
2018-05-15T05:54:49.227Z,101154.67
2018-05-15T05:57:17.367Z,101147.69
2018-05-15T05:59:45.506Z,101148.57
2018-05-15T06:02:13.785Z,101145.39
2018-05-15T06:04:42.046Z,101148.04
2018-05-15T06:07:10.173Z,101153.81
2018-05-15T06:09:38.305Z,101159.20
2018-05-15T06:12:06.476Z,101163.39
2018-05-15T06:14:34.595Z,101159.50
2018-05-15T06:17:02.719Z,101164.42
2018-05-15T06:19:30.840Z,101158.38
2018-05-15T06:21:58.973Z,101167.51
2018-05-15T06:24:27.106Z,101166.28
2018-05-15T06:26:55.260Z,101162.23
2018-05-15T06:29:23.436Z,101164.89
2018-05-15T06:31:51.578Z,101173.08
2018-05-15T06:34:19.884Z,101171.30
2018-05-15T06:36:48.007Z,101160.52
2018-05-15T06:39:16.133Z,101165.45
2018-05-15T06:41:44.274Z,101161.70
2018-05-15T06:44:12.371Z,101159.55
2018-05-15T06:46:40.496Z,101166.67
2018-05-15T06:49:08.649Z,101168.61
2018-05-15T06:51:36.765Z,101162.36
2018-05-15T06:54:04.870Z,101162.97
2018-05-15T06:56:32.987Z,101172.00
2018-05-15T06:59:01.108Z,101173.39
2018-05-15T07:01:29.215Z,101175.32
2018-05-15T07:03:57.382Z,101174.52
2018-05-15T07:06:25.540Z,101181.22
2018-05-15T07:08:53.657Z,101176.84
2018-05-15T07:11:22.163Z,101178.07
2018-05-15T07:13:50.286Z,101182.48
2018-05-15T07:16:18.412Z,101184.01
2018-05-15T07:18:46.537Z,101184.38
2018-05-15T07:21:14.657Z,101180.66
2018-05-15T07:23:42.776Z,101180.98
2018-05-15T07:26:11.237Z,101180.85
2018-05-15T07:28:39.357Z,101188.91
2018-05-15T07:31:07.480Z,101186.75
2018-05-15T07:33:35.621Z,101188.52
2018-05-15T07:36:07.574Z,101184.34
2018-05-15T07:38:35.710Z,101187.48
2018-05-15T07:41:04.045Z,101189.27
2018-05-15T07:43:32.113Z,101186.27
2018-05-15T07:46:00.241Z,101190.66
2018-05-15T07:48:28.362Z,101189.60
2018-05-15T07:50:56.484Z,101188.52
2018-05-15T07:53:24.629Z,101186.31
2018-05-15T07:55:52.768Z,101188.89
2018-05-15T07:58:20.928Z,101190.96
2018-05-15T08:00:49.043Z,101190.70
2018-05-15T08:03:17.330Z,101191.00
2018-05-15T08:05:45.475Z,101190.32
2018-05-15T08:08:13.590Z,101192.94
2018-05-15T08:10:41.721Z,101194.56
2018-05-15T08:13:09.862Z,101198.42
2018-05-15T08:15:37.981Z,101199.27
2018-05-15T08:18:06.127Z,101197.23
2018-05-15T08:20:34.265Z,101201.73
2018-05-15T08:23:02.389Z,101203.09
2018-05-15T08:25:30.506Z,101202.95
2018-05-15T08:27:58.645Z,101197.24
2018-05-15T08:30:26.764Z,101197.91
2018-05-15T08:32:54.889Z,101195.59
2018-05-15T08:35:23.023Z,101197.38
2018-05-15T08:37:51.163Z,101203.64
2018-05-15T08:40:19.284Z,101201.31
2018-05-15T08:42:47.412Z,101196.65
2018-05-15T08:45:15.616Z,101200.09
2018-05-15T08:47:43.655Z,101191.17
2018-05-15T08:50:11.803Z,101187.88
2018-05-15T08:52:39.949Z,101192.95
2018-05-15T08:55:08.081Z,101182.70
2018-05-15T08:57:36.182Z,101193.37
2018-05-15T09:00:04.308Z,101191.70
2018-05-15T09:02:32.468Z,101184.55
2018-05-15T09:05:00.566Z,101177.42
2018-05-15T09:07:28.682Z,101184.27
2018-05-15T09:09:57.020Z,101181.41
2018-05-15T09:12:25.154Z,101177.94
2018-05-15T09:14:53.265Z,101180.62
2018-05-15T09:17:21.416Z,101185.97
2018-05-15T09:19:49.515Z,101191.72
2018-05-15T09:22:17.652Z,101191.05
2018-05-15T09:24:45.808Z,101184.93
2018-05-15T09:27:13.906Z,101192.53
2018-05-15T09:29:42.031Z,101187.61
2018-05-15T09:32:10.166Z,101185.78
2018-05-15T09:34:38.295Z,101182.76
2018-05-15T09:37:06.417Z,101176.58
2018-05-15T09:39:34.540Z,101177.05
2018-05-15T09:42:02.664Z,101172.28
2018-05-15T09:44:30.790Z,101177.63
2018-05-15T09:46:59.010Z,101183.08
2018-05-15T09:49:27.051Z,101179.38
2018-05-15T09:51:55.172Z,101176.38
2018-05-15T09:54:23.286Z,101175.08
2018-05-15T09:56:51.428Z,101173.92
2018-05-15T09:59:20.021Z,101172.12
2018-05-15T10:01:48.316Z,101171.70
2018-05-15T10:04:16.443Z,101162.55
2018-05-15T10:06:44.572Z,101162.38
2018-05-15T10:09:12.681Z,101159.05
2018-05-15T10:11:40.807Z,101155.34
2018-05-15T10:14:09.003Z,101149.80
2018-05-15T10:16:37.301Z,101159.61
2018-05-15T10:19:05.456Z,101164.45
2018-05-15T10:21:33.569Z,101173.11
2018-05-15T10:24:01.717Z,101157.00
2018-05-15T10:26:29.822Z,101162.19
2018-05-15T10:28:57.945Z,101157.42
2018-05-15T10:31:26.099Z,101160.42
2018-05-15T10:33:54.209Z,101159.84
2018-05-15T10:36:22.336Z,101155.36
2018-05-15T10:38:50.476Z,101158.24
2018-05-15T10:41:18.613Z,101152.68
2018-05-15T10:43:46.717Z,101156.22
2018-05-15T10:46:14.865Z,101156.25
2018-05-15T10:48:43.015Z,101149.89
2018-05-15T10:51:11.107Z,101151.18
2018-05-15T10:53:39.259Z,101155.08
2018-05-15T10:56:07.381Z,101147.81
2018-05-15T10:58:35.493Z,101150.67
2018-05-15T11:01:03.637Z,101146.63
2018-05-15T11:03:31.984Z,101146.12
2018-05-15T11:06:00.114Z,101138.39
2018-05-15T11:08:28.243Z,101143.94
2018-05-15T11:10:56.341Z,101138.21
2018-05-15T11:13:24.485Z,101140.34
2018-05-15T11:15:52.852Z,101140.75
2018-05-15T11:18:28.953Z,101140.81
2018-05-15T11:21:08.834Z,101141.56
2018-05-15T11:23:48.847Z,101142.37
2018-05-15T11:26:17.003Z,101134.55
2018-05-15T11:28:45.121Z,101139.38
2018-05-15T11:31:13.233Z,101147.52
2018-05-15T11:33:41.382Z,101151.26
2018-05-15T11:36:12.536Z,101147.35
2018-05-15T11:38:40.680Z,101153.14
2018-05-15T11:41:08.840Z,101150.98
2018-05-15T11:43:36.948Z,101145.77
2018-05-15T11:46:05.051Z,101146.51
2018-05-15T11:48:33.942Z,101142.89
2018-05-15T11:51:01.862Z,101145.45
2018-05-15T11:53:29.498Z,101145.16
2018-05-15T11:55:57.640Z,101144.56
2018-05-15T11:58:25.737Z,101139.64
2018-05-15T12:00:53.835Z,101151.56
2018-05-15T12:03:21.983Z,101140.57
2018-05-15T12:05:50.097Z,101144.69
2018-05-15T12:08:18.307Z,101156.42
2018-05-15T12:10:46.341Z,101146.78
2018-05-15T12:13:14.462Z,101141.14
2018-05-15T12:15:42.564Z,101142.28
2018-05-15T12:18:10.705Z,101149.91
2018-05-15T12:20:38.821Z,101146.42
2018-05-15T12:23:06.934Z,101145.20
2018-05-15T12:25:35.057Z,101148.23
2018-05-15T12:28:03.196Z,101142.66
2018-05-15T12:30:31.302Z,101149.28
2018-05-15T12:32:59.429Z,101143.38
2018-05-15T12:35:27.549Z,101146.80
2018-05-15T12:37:55.673Z,101136.73
2018-05-15T12:40:23.960Z,101144.20
2018-05-15T12:42:53.960Z,101144.44
2018-05-15T12:45:22.097Z,101132.46
2018-05-15T12:47:50.462Z,101136.51
2018-05-15T12:50:22.167Z,101128.61
2018-05-15T12:52:50.297Z,101125.24
2018-05-15T12:55:18.422Z,101117.75
2018-05-15T12:57:46.528Z,101117.95
2018-05-15T13:00:14.664Z,101115.80
2018-05-15T13:02:42.811Z,101119.04
2018-05-15T13:05:10.916Z,101110.80
2018-05-15T13:07:40.017Z,101109.34
2018-05-15T13:10:08.096Z,101116.53
2018-05-15T13:12:36.209Z,101121.04
2018-05-15T13:15:04.333Z,101119.73
2018-05-15T13:17:32.475Z,101121.14
2018-05-15T13:20:00.602Z,101110.63
2018-05-15T13:22:28.721Z,101111.80
2018-05-15T13:24:56.857Z,101112.08
2018-05-15T13:27:24.974Z,101113.80
2018-05-15T13:29:53.828Z,101107.55
2018-05-15T13:32:21.900Z,101106.55
2018-05-15T13:34:50.024Z,101104.59
2018-05-15T13:37:18.157Z,101098.39
2018-05-15T13:39:46.391Z,101100.86
2018-05-15T13:42:14.725Z,101092.52
2018-05-15T13:44:42.860Z,101095.45
2018-05-15T13:47:10.991Z,101093.30
2018-05-15T13:49:39.091Z,101087.77
2018-05-15T13:52:07.224Z,101095.09
2018-05-15T13:54:35.379Z,101087.45
2018-05-15T13:57:03.489Z,101084.97
2018-05-15T13:59:31.712Z,101084.30
2018-05-15T14:02:00.068Z,101079.08
2018-05-15T14:04:31.663Z,101089.68
2018-05-15T14:06:59.785Z,101080.52
2018-05-15T14:09:27.936Z,101081.24
2018-05-15T14:11:56.052Z,101074.91
2018-05-15T14:14:24.208Z,101082.13
2018-05-15T14:16:52.460Z,101078.75
2018-05-15T14:19:20.771Z,101065.20
2018-05-15T14:21:48.859Z,101067.49
2018-05-15T14:24:17.212Z,101060.58
2018-05-15T14:26:45.339Z,101054.21
2018-05-15T14:29:13.623Z,101054.48
2018-05-15T14:31:41.753Z,101056.81
2018-05-15T14:34:13.141Z,101050.13
2018-05-15T14:36:41.258Z,101052.04
2018-05-15T14:39:09.392Z,101050.77
2018-05-15T14:41:49.269Z,101051.99
2018-05-15T14:44:17.421Z,101049.14
2018-05-15T14:46:47.395Z,101047.23
2018-05-15T14:49:16.599Z,101049.17
2018-05-15T14:51:44.711Z,101036.05
2018-05-15T14:54:12.825Z,101044.73
2018-05-15T14:56:41.019Z,101037.61
2018-05-15T14:59:09.157Z,101041.89
2018-05-15T15:01:37.268Z,101043.48
2018-05-15T15:04:05.375Z,101045.72
2018-05-15T15:06:33.641Z,101035.84
2018-05-15T15:09:02.004Z,101037.19
2018-05-15T15:11:30.124Z,101040.95
2018-05-15T15:13:58.244Z,101044.69
2018-05-15T15:16:26.377Z,101038.26
2018-05-15T15:18:54.518Z,101042.44
2018-05-15T15:21:22.671Z,101042.14
2018-05-15T15:23:50.796Z,101027.01
2018-05-15T15:26:18.916Z,101028.80
2018-05-15T15:28:47.046Z,101025.80
2018-05-15T15:31:15.172Z,101020.60
2018-05-15T15:33:43.319Z,101012.77
2018-05-15T15:36:11.462Z,101008.77
2018-05-15T15:38:39.584Z,101009.41
2018-05-15T15:41:07.713Z,101001.83
2018-05-15T15:43:35.873Z,101013.80
2018-05-15T15:46:04.004Z,101000.66
2018-05-15T15:48:32.121Z,101007.28
2018-05-15T15:51:00.250Z,101001.69
2018-05-15T15:53:28.395Z,101000.00
2018-05-15T15:55:56.574Z,101005.67
2018-05-15T15:58:24.704Z,101000.64
2018-05-15T16:00:52.849Z,100993.38
2018-05-15T16:03:20.952Z,100997.92
2018-05-15T16:05:52.844Z,101001.78
2018-05-15T16:08:20.943Z,100998.17
2018-05-15T16:10:49.066Z,101002.14
2018-05-15T16:13:17.363Z,100999.59
2018-05-15T16:15:45.502Z,100998.34
2018-05-15T16:18:13.754Z,100994.59
2018-05-15T16:20:41.913Z,100988.58
2018-05-15T16:23:10.066Z,100995.95
2018-05-15T16:25:38.179Z,100999.34
2018-05-15T16:28:06.335Z,100999.25
2018-05-15T16:30:34.469Z,100996.24
2018-05-15T16:33:02.593Z,100989.05
2018-05-15T16:35:30.729Z,100994.48
2018-05-15T16:37:58.840Z,100995.05
2018-05-15T16:40:26.984Z,100994.13
2018-05-15T16:42:55.143Z,100995.20
2018-05-15T16:45:23.276Z,100999.55
2018-05-15T16:47:51.413Z,100994.43
2018-05-15T16:50:19.835Z,100987.70
2018-05-15T16:52:47.960Z,100990.30
2018-05-15T16:55:16.080Z,100993.24
2018-05-15T16:57:44.524Z,100993.80
2018-05-15T17:00:12.656Z,100993.02
2018-05-15T17:02:40.786Z,100992.23
2018-05-15T17:05:08.920Z,100995.81
2018-05-15T17:07:37.041Z,100998.67
2018-05-15T17:10:05.159Z,100995.52
2018-05-15T17:12:33.462Z,101000.67
2018-05-15T17:15:01.580Z,100998.16
2018-05-15T17:17:29.965Z,100997.41
2018-05-15T17:19:58.098Z,101004.42
2018-05-15T17:22:26.288Z,101000.58
2018-05-15T17:24:54.389Z,101000.84
2018-05-15T17:27:22.546Z,101002.75
2018-05-15T17:29:50.651Z,101002.63
2018-05-15T17:32:18.795Z,100999.89
2018-05-15T17:34:46.910Z,100995.58
2018-05-15T17:37:15.037Z,100993.75
2018-05-15T17:39:43.160Z,100990.31
2018-05-15T17:42:11.270Z,100995.70
2018-05-15T17:44:39.429Z,100995.96
2018-05-15T17:47:07.562Z,100994.36
2018-05-15T17:49:35.686Z,100990.31
2018-05-15T17:52:03.860Z,100988.84
2018-05-15T17:54:31.958Z,100991.28
2018-05-15T17:57:00.096Z,100992.45
2018-05-15T17:59:28.302Z,100995.36
2018-05-15T18:01:56.408Z,100984.38
2018-05-15T18:04:24.553Z,100993.75
2018-05-15T18:06:52.698Z,100988.80
2018-05-15T18:09:20.922Z,100989.06
2018-05-15T18:11:49.128Z,100986.02
2018-05-15T18:14:17.252Z,100984.14
2018-05-15T18:16:45.394Z,100982.77
2018-05-15T18:19:14.185Z,100990.48
2018-05-15T18:21:42.521Z,100993.26
2018-05-15T18:24:10.679Z,100997.27
2018-05-15T18:26:39.054Z,100992.41
2018-05-15T18:29:07.207Z,100992.87
2018-05-15T18:31:35.342Z,100997.32
2018-05-15T18:34:03.468Z,100999.45
2018-05-15T18:36:31.605Z,100989.05
2018-05-15T18:38:59.843Z,100995.13
2018-05-15T18:41:27.944Z,100995.63
2018-05-15T18:43:56.112Z,100999.17
2018-05-15T18:46:24.237Z,100996.08
2018-05-15T18:48:52.537Z,100997.81
2018-05-15T18:51:20.669Z,101002.55
2018-05-15T18:53:48.789Z,101002.47
2018-05-15T18:56:17.079Z,101002.49
2018-05-15T18:58:45.317Z,101005.17
2018-05-15T19:01:13.408Z,101003.91
2018-05-15T19:03:41.522Z,101009.42
2018-05-15T19:06:09.658Z,101002.20
2018-05-15T19:08:37.775Z,101002.67
2018-05-15T19:11:05.935Z,101009.89
2018-05-15T19:13:34.081Z,101007.59
2018-05-15T19:16:02.175Z,101008.91
2018-05-15T19:18:30.347Z,101014.56
2018-05-15T19:20:58.512Z,101009.23
2018-05-15T19:23:26.671Z,101010.45
2018-05-15T19:25:54.793Z,101010.64
2018-05-15T19:28:22.940Z,101015.18
2018-05-15T19:30:51.050Z,101016.59
2018-05-15T19:33:24.984Z,101018.03
2018-05-15T19:35:53.056Z,101015.19
2018-05-15T19:38:21.160Z,101023.47
2018-05-15T19:40:49.297Z,101022.41
2018-05-15T19:43:17.421Z,101026.55
2018-05-15T19:45:45.569Z,101022.74
2018-05-15T19:48:13.803Z,101024.31
2018-05-15T19:50:41.906Z,101024.93
2018-05-15T19:53:10.007Z,101025.88
2018-05-15T19:55:38.155Z,101023.82
2018-05-15T19:58:06.286Z,101029.34
2018-05-15T20:00:34.384Z,101022.67
2018-05-15T20:03:02.529Z,101023.92
2018-05-15T20:05:30.657Z,101029.15
2018-05-15T20:07:58.778Z,101032.70
2018-05-15T20:10:26.919Z,101030.13
2018-05-15T20:12:55.153Z,101032.19
2018-05-15T20:15:23.315Z,101032.77
2018-05-15T20:17:51.412Z,101027.88
2018-05-15T20:20:19.546Z,101025.39
2018-05-15T20:22:47.658Z,101034.16
2018-05-15T20:25:15.797Z,101028.28
2018-05-15T20:27:43.932Z,101034.45
2018-05-15T20:30:12.050Z,101027.75
2018-05-15T20:32:43.617Z,101026.50
2018-05-15T20:35:11.807Z,101026.91
2018-05-15T20:37:39.857Z,101024.89
2018-05-15T20:40:07.979Z,101031.97
2018-05-15T20:42:36.090Z,101032.52
2018-05-15T20:45:04.222Z,101029.94
2018-05-15T20:47:32.383Z,101035.81
2018-05-15T20:50:00.512Z,101037.57
2018-05-15T20:52:28.655Z,101042.36
2018-05-15T20:54:56.758Z,101041.80
2018-05-15T20:57:24.908Z,101042.74
2018-05-15T20:59:53.007Z,101035.92
2018-05-15T21:02:21.141Z,101044.67
2018-05-15T21:04:49.290Z,101038.40
2018-05-15T21:07:17.404Z,101032.11
2018-05-15T21:09:45.551Z,101031.97
2018-05-15T21:12:13.655Z,101036.06
2018-05-15T21:14:41.776Z,101036.77
2018-05-15T21:17:09.915Z,101034.03
2018-05-15T21:19:38.037Z,101031.45
2018-05-15T21:22:06.154Z,101031.72
2018-05-15T21:24:34.284Z,101026.80
2018-05-15T21:27:02.395Z,101027.48
2018-05-15T21:29:30.630Z,101028.99
2018-05-15T21:31:58.800Z,101032.25
2018-05-15T21:34:26.960Z,101031.96
2018-05-15T21:36:55.083Z,101031.96
2018-05-15T21:39:23.229Z,101025.14
2018-05-15T21:41:51.361Z,101031.15
2018-05-15T21:44:20.365Z,101020.91
2018-05-15T21:46:48.497Z,101026.92
2018-05-15T21:49:16.682Z,101026.12
2018-05-15T21:51:44.806Z,101023.77
2018-05-15T21:54:12.914Z,101025.14
2018-05-15T21:56:41.034Z,101019.97
2018-05-15T21:59:09.155Z,101016.95
2018-05-15T22:01:37.705Z,101015.20
2018-05-15T22:04:05.823Z,101004.53
2018-05-15T22:06:33.941Z,101008.62
2018-05-15T22:09:02.092Z,101018.73
2018-05-15T22:11:29.673Z,101022.02
2018-05-15T22:14:09.524Z,101017.08
2018-05-15T22:16:49.431Z,101011.05
2018-05-15T22:19:29.386Z,101016.80
2018-05-15T22:22:09.197Z,101016.50
2018-05-15T22:24:40.645Z,101013.63
2018-05-15T22:27:08.769Z,101014.14
2018-05-15T22:29:36.898Z,101001.59
2018-05-15T22:32:05.023Z,101008.83
2018-05-15T22:34:33.153Z,101000.06
2018-05-15T22:37:01.258Z,101003.08
2018-05-15T22:39:29.389Z,101002.26
2018-05-15T22:41:57.513Z,100997.74
2018-05-15T22:44:25.653Z,100996.37
2018-05-15T22:46:53.770Z,100989.41
2018-05-15T22:49:21.904Z,100994.33
2018-05-15T22:51:50.032Z,100992.95
2018-05-15T22:54:18.160Z,100993.35
2018-05-15T22:56:46.300Z,100989.00
2018-05-15T22:59:14.515Z,100993.08
2018-05-15T23:01:42.653Z,100986.37
2018-05-15T23:04:10.764Z,100985.13
2018-05-15T23:06:38.889Z,100987.46
2018-05-15T23:09:07.015Z,100987.30
2018-05-15T23:11:35.127Z,100993.13
2018-05-15T23:14:03.267Z,100992.05
2018-05-15T23:16:31.397Z,100988.25
2018-05-15T23:18:59.520Z,100990.17
2018-05-15T23:21:27.947Z,100993.73
2018-05-15T23:23:56.081Z,100981.88
2018-05-15T23:26:24.191Z,100985.70
2018-05-15T23:28:52.364Z,100984.48
2018-05-15T23:31:20.470Z,100985.98
2018-05-15T23:33:48.605Z,100982.27
2018-05-15T23:36:16.736Z,100979.03
2018-05-15T23:38:44.865Z,100980.26
2018-05-15T23:41:12.985Z,100984.61
2018-05-15T23:43:41.112Z,100991.42
2018-05-15T23:46:09.509Z,100989.19
2018-05-15T23:48:37.604Z,100989.07
2018-05-15T23:51:05.710Z,100974.92
2018-05-15T23:53:33.853Z,100983.89
2018-05-15T23:56:01.972Z,100976.91
2018-05-15T23:58:30.113Z,100987.43
